createdAt,value
2016-08-08T00:00:40.309Z,21.08
2016-08-08T00:01:40.273Z,21.13
2016-08-08T00:02:40.803Z,21.09
2016-08-08T00:03:40.267Z,21.09
2016-08-08T00:04:40.267Z,21.01
2016-08-08T00:05:40.241Z,21.11
2016-08-08T00:06:40.260Z,21.02
2016-08-08T00:07:40.281Z,21.06
2016-08-08T00:08:40.325Z,21.13
2016-08-08T00:09:40.264Z,21.06
2016-08-08T00:10:40.299Z,21.05
2016-08-08T00:11:40.310Z,21.04
2016-08-08T00:12:40.293Z,21.05
2016-08-08T00:13:40.285Z,21.02
2016-08-08T00:14:40.272Z,21.01
2016-08-08T00:15:40.297Z,21.02
2016-08-08T00:16:40.301Z,20.95
2016-08-08T00:17:40.438Z,20.98
2016-08-08T00:18:40.302Z,21.05
2016-08-08T00:20:40.263Z,20.95
2016-08-08T00:21:40.642Z,21.11
2016-08-08T00:22:40.879Z,21.09
2016-08-08T00:23:40.302Z,21.08
2016-08-08T00:24:40.359Z,21.23
2016-08-08T00:25:40.331Z,21.09
2016-08-08T00:27:40.417Z,21.14
2016-08-08T00:28:40.333Z,21.06
2016-08-08T00:29:40.310Z,20.98
2016-08-08T00:30:40.489Z,21.08
2016-08-08T00:31:40.307Z,21.05
2016-08-08T00:32:40.357Z,21.05
2016-08-08T00:33:40.292Z,20.91
2016-08-08T00:34:40.363Z,20.8
2016-08-08T00:35:40.299Z,20.81
2016-08-08T00:36:40.302Z,20.84
2016-08-08T00:37:40.331Z,20.71
2016-08-08T00:38:40.333Z,20.68
2016-08-08T00:39:40.375Z,20.77
2016-08-08T00:40:40.329Z,20.8
2016-08-08T00:42:40.305Z,20.64
2016-08-08T00:43:40.542Z,20.54
2016-08-08T00:44:40.304Z,20.56
2016-08-08T00:45:40.330Z,20.58
2016-08-08T00:46:40.512Z,20.59
2016-08-08T00:47:40.296Z,20.47
2016-08-08T00:48:40.333Z,20.53
2016-08-08T00:49:40.345Z,20.53
2016-08-08T00:50:40.290Z,20.49
2016-08-08T00:51:40.322Z,20.5
2016-08-08T00:52:40.306Z,20.51
2016-08-08T00:53:40.356Z,20.49
2016-08-08T00:54:40.350Z,20.46
2016-08-08T00:55:40.334Z,20.5
2016-08-08T00:57:40.655Z,20.41
2016-08-08T00:58:40.291Z,20.28
2016-08-08T00:59:40.321Z,20.41
2016-08-08T01:00:40.779Z,20.42
2016-08-08T01:01:40.332Z,20.35
2016-08-08T01:02:40.368Z,20.28
2016-08-08T01:03:40.337Z,20.33
2016-08-08T01:04:40.300Z,20.31
2016-08-08T01:05:40.871Z,20.27
2016-08-08T01:06:40.323Z,20.33
2016-08-08T01:07:40.306Z,20.28
2016-08-08T01:08:40.479Z,20.27
2016-08-08T01:09:40.356Z,20.3
2016-08-08T01:10:40.678Z,20.25
2016-08-08T01:12:40.665Z,20.3
2016-08-08T01:13:40.422Z,20.3
2016-08-08T01:14:40.370Z,20.34
2016-08-08T01:15:41.384Z,20.34
2016-08-08T01:16:40.333Z,20.24
2016-08-08T01:17:41.035Z,20.16
2016-08-08T01:18:41.682Z,20.23
2016-08-08T01:19:41.020Z,20.23
2016-08-08T01:20:40.330Z,20.15
2016-08-08T01:21:40.965Z,20.09
2016-08-08T01:22:40.339Z,20.15
2016-08-08T01:23:40.333Z,20.09
2016-08-08T01:24:40.505Z,19.97
2016-08-08T01:25:40.364Z,20.12
2016-08-08T01:26:40.902Z,20.12
2016-08-08T01:27:40.332Z,20
2016-08-08T01:28:40.645Z,20.13
2016-08-08T01:29:40.331Z,20.24
2016-08-08T01:30:40.847Z,20.2
2016-08-08T01:31:40.311Z,20.13
2016-08-08T01:32:40.378Z,20.15
2016-08-08T01:33:40.366Z,20.15
2016-08-08T01:34:40.374Z,20.15
2016-08-08T01:35:40.582Z,20.1
2016-08-08T01:36:40.335Z,20.1
2016-08-08T01:37:40.853Z,20.13
2016-08-08T01:38:41.393Z,20.23
2016-08-08T01:39:40.842Z,20.08
2016-08-08T01:40:40.776Z,20.1
2016-08-08T01:41:40.374Z,20.15
2016-08-08T01:42:40.400Z,20.21
2016-08-08T01:43:40.371Z,20.15
2016-08-08T01:44:40.848Z,20.02
2016-08-08T01:45:40.373Z,20.06
2016-08-08T01:46:40.453Z,20
2016-08-08T01:47:40.367Z,20.09
2016-08-08T01:48:40.387Z,20.03
2016-08-08T01:49:40.374Z,20.09
2016-08-08T01:50:40.372Z,20.03
2016-08-08T01:51:40.364Z,20.02
2016-08-08T01:52:40.369Z,20.06
2016-08-08T01:53:40.878Z,19.94
2016-08-08T01:54:40.368Z,19.97
2016-08-08T01:55:40.342Z,19.93
2016-08-08T01:56:40.423Z,19.8
2016-08-08T01:57:40.398Z,19.86
2016-08-08T01:58:40.845Z,19.87
2016-08-08T01:59:40.365Z,19.8
2016-08-08T02:00:40.784Z,19.76
2016-08-08T02:01:40.358Z,19.84
2016-08-08T02:02:40.358Z,19.8
2016-08-08T02:03:40.353Z,19.78
2016-08-08T02:04:40.363Z,19.76
2016-08-08T02:05:40.815Z,19.8
2016-08-08T02:06:40.391Z,19.88
2016-08-08T02:07:40.848Z,19.86
2016-08-08T02:08:40.351Z,19.79
2016-08-08T02:09:40.998Z,19.83
2016-08-08T02:10:40.399Z,19.88
2016-08-08T02:11:40.935Z,19.83
2016-08-08T02:12:40.384Z,19.88
2016-08-08T02:13:40.423Z,19.97
2016-08-08T02:14:40.835Z,19.87
2016-08-08T02:15:40.389Z,19.83
2016-08-08T02:16:41.215Z,19.91
2016-08-08T02:17:40.723Z,19.86
2016-08-08T02:18:40.965Z,19.86
2016-08-08T02:19:40.401Z,19.84
2016-08-08T02:20:40.834Z,19.84
2016-08-08T02:21:40.385Z,19.84
2016-08-08T02:22:40.409Z,19.75
2016-08-08T02:23:40.956Z,19.8
2016-08-08T02:24:40.468Z,19.72
2016-08-08T02:25:40.907Z,19.65
2016-08-08T02:26:40.486Z,19.66
2016-08-08T02:27:40.435Z,19.7
2016-08-08T02:28:40.394Z,19.68
2016-08-08T02:29:40.737Z,19.58
2016-08-08T02:30:40.394Z,19.58
2016-08-08T02:31:40.390Z,19.58
2016-08-08T02:32:40.456Z,19.63
2016-08-08T02:33:40.406Z,19.5
2016-08-08T02:34:40.397Z,19.54
2016-08-08T02:35:40.398Z,19.39
2016-08-08T02:36:40.398Z,19.51
2016-08-08T02:37:40.425Z,19.36
2016-08-08T02:38:40.391Z,19.39
2016-08-08T02:39:40.575Z,19.35
2016-08-08T02:40:40.424Z,19.35
2016-08-08T02:41:40.401Z,19.36
2016-08-08T02:42:41.871Z,19.29
2016-08-08T02:43:40.425Z,19.29
2016-08-08T02:44:42.877Z,19.31
2016-08-08T02:45:40.647Z,19.24
2016-08-08T02:46:41.629Z,19.31
2016-08-08T02:47:40.559Z,19.15
2016-08-08T02:48:40.543Z,19.24
2016-08-08T02:49:41.974Z,19.17
2016-08-08T02:50:41.002Z,19.1
2016-08-08T02:51:40.575Z,19.14
2016-08-08T02:52:41.808Z,19.02
2016-08-08T02:53:40.966Z,19.1
2016-08-08T02:54:42.108Z,19.05
2016-08-08T02:55:40.419Z,18.99
2016-08-08T02:56:40.732Z,18.92
2016-08-08T02:57:40.530Z,18.92
2016-08-08T02:58:40.432Z,18.91
2016-08-08T02:59:40.482Z,18.92
2016-08-08T03:00:40.773Z,18.87
2016-08-08T03:01:41.150Z,18.84
2016-08-08T03:02:40.559Z,18.95
2016-08-08T03:03:41.084Z,18.86
2016-08-08T03:04:40.653Z,18.74
2016-08-08T03:05:40.527Z,18.74
2016-08-08T03:06:41.185Z,18.73
2016-08-08T03:07:40.447Z,18.79
2016-08-08T03:08:40.702Z,18.73
2016-08-08T03:09:40.725Z,18.72
2016-08-08T03:10:40.497Z,18.76
2016-08-08T03:11:41.448Z,18.58
2016-08-08T03:12:40.428Z,18.65
2016-08-08T03:13:40.519Z,18.7
2016-08-08T03:14:40.458Z,18.68
2016-08-08T03:15:40.490Z,18.67
2016-08-08T03:16:40.602Z,18.61
2016-08-08T03:17:40.582Z,18.62
2016-08-08T03:18:40.923Z,18.61
2016-08-08T03:19:40.552Z,18.49
2016-08-08T03:20:40.667Z,18.57
2016-08-08T03:21:40.701Z,18.44
2016-08-08T03:22:40.755Z,18.59
2016-08-08T03:23:40.521Z,18.46
2016-08-08T03:24:40.588Z,18.44
2016-08-08T03:25:42.593Z,18.43
2016-08-08T03:26:41.269Z,18.47
2016-08-08T03:27:40.797Z,18.44
2016-08-08T03:28:41.100Z,18.43
2016-08-08T03:29:41.160Z,18.33
2016-08-08T03:30:40.735Z,18.37
2016-08-08T03:31:41.384Z,18.36
2016-08-08T03:32:41.243Z,18.31
2016-08-08T03:33:40.753Z,18.36
2016-08-08T03:34:40.765Z,18.22
2016-08-08T03:35:40.708Z,18.33
2016-08-08T03:36:41.560Z,18.19
2016-08-08T03:37:40.781Z,18.27
2016-08-08T03:38:40.461Z,18.25
2016-08-08T03:39:40.502Z,18.19
2016-08-08T03:40:42.446Z,18.07
2016-08-08T03:41:40.497Z,18.25
2016-08-08T03:42:40.772Z,18.29
2016-08-08T03:43:41.041Z,18.03
2016-08-08T03:44:40.545Z,18.18
2016-08-08T03:45:40.499Z,18.02
2016-08-08T03:46:40.956Z,18.06
2016-08-08T03:47:40.548Z,18.03
2016-08-08T03:48:40.789Z,18.12
2016-08-08T03:49:40.650Z,18.09
2016-08-08T03:50:40.583Z,17.89
2016-08-08T03:51:40.707Z,18.03
2016-08-08T03:52:40.585Z,17.97
2016-08-08T03:53:40.661Z,17.92
2016-08-08T03:54:40.491Z,17.97
2016-08-08T03:55:40.718Z,17.85
2016-08-08T03:56:40.522Z,17.94
2016-08-08T03:57:41.568Z,17.81
2016-08-08T03:58:40.580Z,17.85
2016-08-08T03:59:41.066Z,17.99
2016-08-08T04:00:40.754Z,17.91
2016-08-08T04:01:40.520Z,17.87
2016-08-08T04:02:40.736Z,17.87
2016-08-08T04:03:40.577Z,17.92
2016-08-08T04:04:40.558Z,17.82
2016-08-08T04:05:40.553Z,17.76
2016-08-08T04:06:40.685Z,17.78
2016-08-08T04:07:40.478Z,17.71
2016-08-08T04:08:41.699Z,17.81
2016-08-08T04:09:41.164Z,17.82
2016-08-08T04:10:40.490Z,17.73
2016-08-08T04:11:40.485Z,17.71
2016-08-08T04:12:40.626Z,17.81
2016-08-08T04:13:40.651Z,17.74
2016-08-08T04:14:40.549Z,17.76
2016-08-08T04:15:41.035Z,17.81
2016-08-08T04:16:40.507Z,17.78
2016-08-08T04:17:40.829Z,17.73
2016-08-08T04:18:40.793Z,17.74
2016-08-08T04:19:40.893Z,17.92
2016-08-08T04:20:41.184Z,17.85
2016-08-08T04:21:40.996Z,17.84
2016-08-08T04:22:40.833Z,17.79
2016-08-08T04:23:40.988Z,17.74
2016-08-08T04:24:40.516Z,17.74
2016-08-08T04:25:40.585Z,17.81
2016-08-08T04:26:40.996Z,17.81
2016-08-08T04:27:41.208Z,17.73
2016-08-08T04:28:41.404Z,17.73
2016-08-08T04:29:40.536Z,17.88
2016-08-08T04:30:40.777Z,17.81
2016-08-08T04:31:40.963Z,17.64
2016-08-08T04:32:40.590Z,17.7
2016-08-08T04:33:40.820Z,17.71
2016-08-08T04:34:40.821Z,17.73
2016-08-08T04:35:41.168Z,17.64
2016-08-08T04:36:40.641Z,17.62
2016-08-08T04:37:40.713Z,17.71
2016-08-08T04:38:40.802Z,17.74
2016-08-08T04:39:40.524Z,17.62
2016-08-08T04:40:40.697Z,17.62
2016-08-08T04:41:40.658Z,17.64
2016-08-08T04:42:40.612Z,17.66
2016-08-08T04:43:40.796Z,17.55
2016-08-08T04:44:40.789Z,17.57
2016-08-08T04:45:40.518Z,17.67
2016-08-08T04:46:40.534Z,17.73
2016-08-08T04:47:40.581Z,17.66
2016-08-08T04:48:40.542Z,17.73
2016-08-08T04:49:40.558Z,17.71
2016-08-08T04:50:40.565Z,17.7
2016-08-08T04:51:40.526Z,17.81
2016-08-08T04:52:40.523Z,17.82
2016-08-08T04:53:40.583Z,17.79
2016-08-08T04:54:40.575Z,17.74
2016-08-08T04:55:40.524Z,17.89
2016-08-08T04:56:40.560Z,17.78
2016-08-08T04:57:40.524Z,17.94
2016-08-08T04:58:40.524Z,17.89
2016-08-08T04:59:40.522Z,17.91
2016-08-08T05:00:40.494Z,18
2016-08-08T05:01:40.524Z,17.94
2016-08-08T05:02:40.522Z,17.92
2016-08-08T05:03:40.526Z,18.04
2016-08-08T05:04:41.520Z,18.12
2016-08-08T05:05:40.546Z,18.06
2016-08-08T05:06:40.553Z,18.21
2016-08-08T05:07:40.557Z,18.27
2016-08-08T05:08:40.556Z,18.29
2016-08-08T05:09:40.558Z,18.4
2016-08-08T05:10:40.525Z,18.54
2016-08-08T05:11:40.553Z,18.52
2016-08-08T05:12:40.406Z,18.57
2016-08-08T05:13:40.572Z,18.67
2016-08-08T05:14:40.573Z,18.62
2016-08-08T05:15:40.551Z,18.67
2016-08-08T05:16:40.557Z,18.67
2016-08-08T05:17:40.556Z,18.65
2016-08-08T05:18:40.560Z,18.83
2016-08-08T05:19:40.556Z,18.91
2016-08-08T05:20:40.558Z,18.98
2016-08-08T05:21:40.564Z,19.02
2016-08-08T05:22:40.615Z,19.02
2016-08-08T05:23:40.558Z,19.02
2016-08-08T05:24:40.618Z,19.1
2016-08-08T05:25:40.571Z,19.14
2016-08-08T05:26:40.565Z,19.14
2016-08-08T05:28:40.572Z,19.18
2016-08-08T05:29:40.566Z,19.32
2016-08-08T05:30:40.557Z,19.13
2016-08-08T05:31:40.579Z,19.31
2016-08-08T05:32:41.217Z,19.32
2016-08-08T05:33:40.586Z,19.39
2016-08-08T05:34:40.582Z,19.53
2016-08-08T05:35:40.592Z,19.5
2016-08-08T05:36:40.559Z,19.65
2016-08-08T05:37:40.583Z,19.58
2016-08-08T05:38:40.587Z,19.65
2016-08-08T05:39:40.583Z,19.63
2016-08-08T05:40:40.587Z,19.65
2016-08-08T05:41:40.585Z,19.73
2016-08-08T05:43:40.582Z,19.79
2016-08-08T05:44:40.585Z,19.87
2016-08-08T05:45:40.594Z,19.84
2016-08-08T05:46:40.604Z,19.94
2016-08-08T05:47:40.641Z,19.9
2016-08-08T05:48:40.588Z,19.9
2016-08-08T05:49:40.607Z,20.06
2016-08-08T05:50:40.587Z,19.95
2016-08-08T05:51:40.608Z,20.12
2016-08-08T05:52:40.602Z,20.13
2016-08-08T05:53:40.576Z,20.12
2016-08-08T05:54:40.584Z,20.09
2016-08-08T05:55:40.591Z,20.15
2016-08-08T05:56:40.584Z,20.2
2016-08-08T05:57:40.593Z,20.18
2016-08-08T05:58:40.588Z,20.13
2016-08-08T05:59:40.582Z,20.18
2016-08-08T06:00:40.587Z,20.21
2016-08-08T06:01:40.647Z,20.28
2016-08-08T06:02:40.619Z,20.33
2016-08-08T06:03:40.579Z,20.35
2016-08-08T06:04:40.658Z,20.27
2016-08-08T06:05:40.597Z,20.27
2016-08-08T06:06:40.591Z,20.27
2016-08-08T06:07:40.623Z,20.25
2016-08-08T06:08:40.599Z,20.27
2016-08-08T06:09:40.582Z,20.18
2016-08-08T06:10:40.621Z,20.03
2016-08-08T06:11:40.593Z,20.08
2016-08-08T06:12:40.619Z,19.95
2016-08-08T06:13:40.632Z,19.91
2016-08-08T06:14:40.596Z,19.91
2016-08-08T06:15:40.592Z,19.93
2016-08-08T06:16:40.594Z,19.87
2016-08-08T06:17:40.622Z,19.83
2016-08-08T06:18:40.629Z,19.73
2016-08-08T06:19:40.650Z,19.69
2016-08-08T06:20:40.616Z,19.7
2016-08-08T06:21:40.618Z,19.63
2016-08-08T06:22:40.593Z,19.65
2016-08-08T06:23:40.619Z,19.53
2016-08-08T06:24:40.630Z,19.6
2016-08-08T06:25:40.589Z,19.55
2016-08-08T06:26:40.647Z,19.42
2016-08-08T06:27:40.630Z,19.48
2016-08-08T06:28:40.620Z,19.58
2016-08-08T06:29:40.660Z,19.46
2016-08-08T06:30:40.670Z,19.38
2016-08-08T06:31:40.672Z,19.4
2016-08-08T06:32:40.657Z,19.39
2016-08-08T06:33:40.651Z,19.29
2016-08-08T06:34:40.656Z,19.31
2016-08-08T06:35:40.661Z,19.31
2016-08-08T06:36:40.822Z,19.29
2016-08-08T06:37:40.768Z,19.28
2016-08-08T06:38:40.635Z,19.25
2016-08-08T06:39:40.683Z,19.2
2016-08-08T06:40:40.713Z,19.13
2016-08-08T06:41:41.226Z,19.1
2016-08-08T06:42:40.764Z,19.2
2016-08-08T06:43:40.682Z,19.17
2016-08-08T06:44:40.899Z,19.14
2016-08-08T06:45:40.873Z,19.14
2016-08-08T06:46:40.740Z,19.11
2016-08-08T06:47:40.800Z,19.13
2016-08-08T06:48:40.690Z,19.2
2016-08-08T06:49:40.813Z,19.11
2016-08-08T06:50:40.682Z,18.99
2016-08-08T06:51:40.721Z,19.14
2016-08-08T06:52:40.663Z,19.2
2016-08-08T06:53:40.715Z,19.1
2016-08-08T06:54:40.711Z,19.2
2016-08-08T06:55:40.683Z,19.17
2016-08-08T06:56:40.655Z,19.1
2016-08-08T06:57:40.686Z,19.14
2016-08-08T06:58:40.681Z,19.11
2016-08-08T06:59:40.741Z,19.15
2016-08-08T07:00:40.682Z,19.1
2016-08-08T07:01:40.671Z,19.24
2016-08-08T07:02:40.688Z,19.18
2016-08-08T07:03:40.618Z,19.25
2016-08-08T07:04:40.679Z,19.24
2016-08-08T07:05:40.644Z,19.28
2016-08-08T07:06:40.651Z,19.21
2016-08-08T07:07:40.676Z,19.25
2016-08-08T07:08:40.651Z,19.28
2016-08-08T07:09:40.651Z,19.31
2016-08-08T07:10:40.687Z,19.35
2016-08-08T07:11:40.641Z,19.42
2016-08-08T07:12:40.734Z,19.5
2016-08-08T07:13:41.065Z,19.38
2016-08-08T07:14:40.661Z,19.35
2016-08-08T07:15:40.666Z,19.55
2016-08-08T07:16:41.530Z,19.57
2016-08-08T07:17:41.166Z,19.54
2016-08-08T07:18:40.713Z,19.55
2016-08-08T07:19:40.688Z,19.65
2016-08-08T07:20:40.999Z,19.73
2016-08-08T07:21:41.457Z,19.66
2016-08-08T07:22:40.704Z,19.87
2016-08-08T07:23:41.675Z,19.75
2016-08-08T07:24:41.300Z,19.75
2016-08-08T07:25:42.167Z,19.75
2016-08-08T07:26:40.671Z,19.78
2016-08-08T07:27:40.726Z,19.78
2016-08-08T07:28:41.217Z,19.79
2016-08-08T07:29:40.742Z,19.95
2016-08-08T07:30:40.740Z,19.97
2016-08-08T07:31:41.573Z,20.05
2016-08-08T07:32:40.854Z,19.98
2016-08-08T07:33:40.691Z,20.15
2016-08-08T07:34:41.106Z,20.05
2016-08-08T07:35:40.685Z,20.2
2016-08-08T07:36:40.689Z,20.1
2016-08-08T07:37:41.092Z,20.08
2016-08-08T07:38:40.773Z,20.16
2016-08-08T07:39:40.725Z,20.1
2016-08-08T07:40:40.703Z,20.1
2016-08-08T07:41:40.724Z,20.13
2016-08-08T07:42:40.728Z,20.06
2016-08-08T07:43:40.873Z,19.94
2016-08-08T07:44:40.683Z,19.87
2016-08-08T07:45:40.719Z,19.84
2016-08-08T07:46:41.050Z,19.79
2016-08-08T07:47:40.699Z,19.68
2016-08-08T07:48:40.686Z,19.61
2016-08-08T07:49:41.252Z,19.75
2016-08-08T07:50:41.070Z,19.63
2016-08-08T07:51:40.766Z,19.65
2016-08-08T07:52:41.034Z,19.7
2016-08-08T07:53:41.624Z,19.66
2016-08-08T07:54:41.260Z,19.66
2016-08-08T07:55:40.762Z,19.68
2016-08-08T07:56:40.805Z,19.65
2016-08-08T07:57:40.700Z,19.61
2016-08-08T07:58:40.754Z,19.66
2016-08-08T07:59:40.694Z,19.57
2016-08-08T08:00:40.719Z,19.68
2016-08-08T08:01:40.777Z,19.65
2016-08-08T08:02:40.713Z,19.68
2016-08-08T08:03:40.702Z,19.57
2016-08-08T08:04:40.897Z,19.68
2016-08-08T08:05:41.378Z,19.58
2016-08-08T08:06:40.710Z,19.57
2016-08-08T08:07:40.753Z,19.6
2016-08-08T08:08:40.746Z,19.57
2016-08-08T08:09:41.439Z,19.5
2016-08-08T08:10:40.791Z,19.54
2016-08-08T08:11:40.780Z,19.6
2016-08-08T08:12:40.768Z,19.57
2016-08-08T08:13:40.716Z,19.65
2016-08-08T08:14:40.733Z,19.6
2016-08-08T08:15:40.811Z,19.58
2016-08-08T08:16:40.751Z,19.43
2016-08-08T08:17:40.743Z,19.61
2016-08-08T08:18:40.813Z,19.65
2016-08-08T08:19:40.774Z,19.68
2016-08-08T08:20:40.763Z,19.63
2016-08-08T08:21:40.737Z,19.75
2016-08-08T08:22:40.736Z,19.8
2016-08-08T08:23:40.789Z,19.88
2016-08-08T08:24:40.856Z,20
2016-08-08T08:25:40.809Z,20
2016-08-08T08:26:40.786Z,20.09
2016-08-08T08:27:40.762Z,20.1
2016-08-08T08:28:40.738Z,20.08
2016-08-08T08:29:40.759Z,20.13
2016-08-08T08:30:40.750Z,20.27
2016-08-08T08:31:40.817Z,20.33
2016-08-08T08:32:40.785Z,20.34
2016-08-08T08:33:40.817Z,20.34
2016-08-08T08:34:40.810Z,20.28
2016-08-08T08:35:40.819Z,20.35
2016-08-08T08:36:40.755Z,20.49
2016-08-08T08:37:40.798Z,20.51
2016-08-08T08:38:40.806Z,20.66
2016-08-08T08:39:40.776Z,20.76
2016-08-08T08:40:40.759Z,20.89
2016-08-08T08:41:40.786Z,21.05
2016-08-08T08:42:40.777Z,21.13
2016-08-08T08:43:40.784Z,21.14
2016-08-08T08:44:40.747Z,21.2
2016-08-08T08:45:40.941Z,21.26
2016-08-08T08:46:41.357Z,21.38
2016-08-08T08:47:40.785Z,21.46
2016-08-08T08:48:40.896Z,21.61
2016-08-08T08:49:40.768Z,21.66
2016-08-08T08:50:40.788Z,21.9
2016-08-08T08:51:40.810Z,21.85
2016-08-08T08:52:40.829Z,21.71
2016-08-08T08:53:40.806Z,21.76
2016-08-08T08:54:40.806Z,21.79
2016-08-08T08:55:40.793Z,21.9
2016-08-08T08:56:41.069Z,22.04
2016-08-08T08:57:40.817Z,21.98
2016-08-08T08:58:40.874Z,22.14
2016-08-08T08:59:40.790Z,22.17
2016-08-08T09:00:40.788Z,22.34
2016-08-08T09:01:40.795Z,22.31
2016-08-08T09:02:40.816Z,22.29
2016-08-08T09:03:40.902Z,22.37
2016-08-08T09:04:41.535Z,22.41
2016-08-08T09:05:40.779Z,22.49
2016-08-08T09:06:40.790Z,22.52
2016-08-08T09:07:40.756Z,22.57
2016-08-08T09:08:40.779Z,22.77
2016-08-08T09:09:40.779Z,23.05
2016-08-08T09:10:40.815Z,23.19
2016-08-08T09:11:40.848Z,23.27
2016-08-08T09:12:40.806Z,23.55
2016-08-08T09:13:40.810Z,23.46
2016-08-08T09:14:40.902Z,23.35
2016-08-08T09:15:40.789Z,23.24
2016-08-08T09:16:40.778Z,23.11
2016-08-08T09:17:40.819Z,23.02
2016-08-08T09:18:40.765Z,23.31
2016-08-08T09:19:40.834Z,23.35
2016-08-08T09:20:41.168Z,23.55
2016-08-08T09:21:40.780Z,23.57
2016-08-08T09:22:40.811Z,23.71
2016-08-08T09:23:41.141Z,23.76
2016-08-08T09:24:40.832Z,23.9
2016-08-08T09:25:40.773Z,24
2016-08-08T09:26:41.200Z,23.9
2016-08-08T09:27:41.135Z,23.72
2016-08-08T09:28:40.823Z,23.75
2016-08-08T09:29:40.814Z,23.61
2016-08-08T09:30:40.884Z,23.5
2016-08-08T09:31:40.790Z,23.29
2016-08-08T09:32:40.868Z,23.35
2016-08-08T09:33:40.843Z,23.19
2016-08-08T09:34:40.810Z,23.05
2016-08-08T09:35:40.819Z,22.84
2016-08-08T09:36:41.657Z,22.87
2016-08-08T09:37:40.801Z,22.72
2016-08-08T09:38:40.870Z,22.83
2016-08-08T09:39:40.904Z,22.71
2016-08-08T09:40:40.789Z,22.62
2016-08-08T09:41:41.182Z,22.54
2016-08-08T09:42:41.051Z,22.38
2016-08-08T09:43:40.727Z,22.39
2016-08-08T09:44:40.820Z,22.14
2016-08-08T09:45:40.814Z,22.06
2016-08-08T09:46:40.936Z,21.87
2016-08-08T09:47:40.822Z,21.83
2016-08-08T09:48:40.845Z,21.78
2016-08-08T09:49:40.861Z,21.6
2016-08-08T09:50:41.086Z,21.42
2016-08-08T09:51:40.856Z,21.46
2016-08-08T09:52:41.358Z,21.39
2016-08-08T09:53:40.827Z,21.36
2016-08-08T09:54:41.064Z,21.27
2016-08-08T09:55:40.859Z,21.32
2016-08-08T09:56:40.888Z,21.14
2016-08-08T09:57:40.894Z,20.96
2016-08-08T09:58:40.843Z,21.02
2016-08-08T09:59:41.434Z,21.02
2016-08-08T10:00:40.829Z,21.04
2016-08-08T10:01:40.786Z,20.93
2016-08-08T10:02:41.747Z,20.84
2016-08-08T10:03:40.831Z,20.76
2016-08-08T10:04:41.510Z,20.79
2016-08-08T10:05:40.822Z,20.77
2016-08-08T10:06:40.870Z,20.74
2016-08-08T10:07:41.052Z,20.74
2016-08-08T10:08:41.954Z,20.69
2016-08-08T10:09:40.847Z,20.79
2016-08-08T10:10:41.879Z,20.66
2016-08-08T10:11:40.851Z,20.65
2016-08-08T10:12:40.841Z,20.64
2016-08-08T10:13:40.685Z,20.51
2016-08-08T10:14:41.386Z,20.61
2016-08-08T10:15:41.357Z,20.46
2016-08-08T10:16:40.843Z,20.49
2016-08-08T10:17:40.873Z,20.46
2016-08-08T10:18:41.463Z,20.42
2016-08-08T10:19:41.147Z,20.43
2016-08-08T10:20:40.854Z,20.33
2016-08-08T10:21:41.211Z,20.42
2016-08-08T10:22:41.480Z,20.31
2016-08-08T10:23:40.896Z,20.24
2016-08-08T10:24:40.914Z,20.23
2016-08-08T10:25:40.856Z,20.18
2016-08-08T10:26:41.301Z,20.12
2016-08-08T10:27:40.852Z,20.16
2016-08-08T10:29:41.024Z,20
2016-08-08T10:30:41.466Z,19.93
2016-08-08T10:31:41.327Z,19.94
2016-08-08T10:32:40.872Z,19.93
2016-08-08T10:33:40.913Z,19.94
2016-08-08T10:34:41.185Z,19.95
2016-08-08T10:35:40.948Z,19.94
2016-08-08T10:36:40.875Z,19.93
2016-08-08T10:37:40.893Z,19.8
2016-08-08T10:38:40.907Z,19.87
2016-08-08T10:39:40.915Z,19.73
2016-08-08T10:40:40.864Z,19.79
2016-08-08T10:41:40.911Z,19.72
2016-08-08T10:42:41.030Z,19.73
2016-08-08T10:43:41.467Z,19.73
2016-08-08T10:44:41.181Z,19.72
2016-08-08T10:45:41.424Z,19.75
2016-08-08T10:46:40.887Z,19.69
2016-08-08T10:47:40.886Z,19.66
2016-08-08T10:48:40.943Z,19.66
2016-08-08T10:49:40.997Z,19.72
2016-08-08T10:50:40.903Z,19.55
2016-08-08T10:51:40.893Z,19.48
2016-08-08T10:52:40.875Z,19.48
2016-08-08T10:53:40.944Z,19.42
2016-08-08T10:54:40.947Z,19.46
2016-08-08T10:55:40.952Z,19.36
2016-08-08T10:56:41.403Z,19.25
2016-08-08T10:57:40.983Z,19.14
2016-08-08T10:59:41.097Z,19.21
2016-08-08T11:00:42.294Z,19.18
2016-08-08T11:01:41.024Z,19.13
2016-08-08T11:02:41.879Z,19.13
2016-08-08T11:03:41.560Z,19.1
2016-08-08T11:04:41.087Z,19.1
2016-08-08T11:05:41.162Z,18.97
2016-08-08T11:06:40.936Z,18.97
2016-08-08T11:07:40.873Z,19.06
2016-08-08T11:08:40.904Z,18.91
2016-08-08T11:09:40.944Z,18.84
2016-08-08T11:10:40.912Z,18.91
2016-08-08T11:11:41.209Z,18.87
2016-08-08T11:12:41.047Z,18.77
2016-08-08T11:13:41.076Z,18.83
2016-08-08T11:14:41.000Z,18.62
2016-08-08T11:15:41.809Z,18.65
2016-08-08T11:16:41.074Z,18.65
2016-08-08T11:17:41.521Z,18.58
2016-08-08T11:18:40.987Z,18.44
2016-08-08T11:19:41.722Z,18.54
2016-08-08T11:20:41.005Z,18.5
2016-08-08T11:21:41.000Z,18.49
2016-08-08T11:22:41.690Z,18.58
2016-08-08T11:23:41.575Z,18.49
2016-08-08T11:24:41.116Z,18.55
2016-08-08T11:25:41.274Z,18.55
2016-08-08T11:26:41.031Z,18.54
2016-08-08T11:27:40.976Z,18.47
2016-08-08T11:28:41.058Z,18.55
2016-08-08T11:29:41.949Z,18.7
2016-08-08T11:30:41.017Z,18.47
2016-08-08T11:31:40.945Z,18.49
2016-08-08T11:32:41.151Z,18.62
2016-08-08T11:33:41.001Z,18.65
2016-08-08T11:34:41.028Z,18.54
2016-08-08T11:35:41.185Z,18.55
2016-08-08T11:36:41.020Z,18.67
2016-08-08T11:37:40.908Z,18.73
2016-08-08T11:38:40.982Z,18.77
2016-08-08T11:39:40.968Z,18.65
2016-08-08T11:40:41.119Z,18.79
2016-08-08T11:41:40.951Z,18.86
2016-08-08T11:42:40.941Z,18.91
2016-08-08T11:43:40.907Z,18.94
2016-08-08T11:44:41.006Z,18.9
2016-08-08T11:45:40.937Z,18.94
2016-08-08T11:46:40.936Z,18.97
2016-08-08T11:47:41.031Z,18.99
2016-08-08T11:48:41.087Z,18.97
2016-08-08T11:49:41.112Z,19.15
2016-08-08T11:50:40.948Z,19.13
2016-08-08T11:51:41.038Z,19.13
2016-08-08T11:52:41.063Z,19.08
2016-08-08T11:53:40.939Z,19.13
2016-08-08T11:54:40.944Z,19.14
2016-08-08T11:55:40.935Z,19.06
2016-08-08T11:56:40.983Z,19.11
2016-08-08T11:57:40.921Z,19.21
2016-08-08T11:58:40.955Z,19.06
2016-08-08T11:59:40.943Z,19.11
2016-08-08T12:00:40.928Z,19.1
2016-08-08T12:01:41.588Z,19.1
2016-08-08T12:02:40.973Z,19.17
2016-08-08T12:03:40.913Z,19.36
2016-08-08T12:04:40.914Z,19.42
2016-08-08T12:05:40.981Z,19.32
2016-08-08T12:06:40.993Z,19.47
2016-08-08T12:07:40.938Z,19.47
2016-08-08T12:08:40.930Z,19.55
2016-08-08T12:09:40.954Z,19.57
2016-08-08T12:10:40.972Z,19.54
2016-08-08T12:11:40.998Z,19.69
2016-08-08T12:12:40.977Z,19.76
2016-08-08T12:13:41.036Z,19.9
2016-08-08T12:14:40.944Z,19.98
2016-08-08T12:15:40.966Z,19.83
2016-08-08T12:16:40.955Z,20.09
2016-08-08T12:17:41.007Z,20.25
2016-08-08T12:18:40.999Z,20.41
2016-08-08T12:19:40.999Z,20.24
2016-08-08T12:20:40.985Z,20.5
2016-08-08T12:21:41.008Z,20.66
2016-08-08T12:22:40.974Z,20.81
2016-08-08T12:23:40.993Z,21.01
2016-08-08T12:24:40.972Z,21.17
2016-08-08T12:25:40.976Z,21.35
2016-08-08T12:26:40.977Z,21.44
2016-08-08T12:27:41.034Z,21.61
2016-08-08T12:28:40.968Z,21.59
2016-08-08T12:29:40.969Z,21.59
2016-08-08T12:30:40.965Z,21.59
2016-08-08T12:31:40.976Z,21.71
2016-08-08T12:32:41.971Z,21.74
2016-08-08T12:33:40.967Z,21.76
2016-08-08T12:34:40.975Z,21.79
2016-08-08T12:35:40.998Z,21.76
2016-08-08T12:36:42.462Z,21.74
2016-08-08T12:37:41.081Z,21.72
2016-08-08T12:38:40.998Z,21.64
2016-08-08T12:39:41.752Z,21.75
2016-08-08T12:40:41.083Z,21.81
2016-08-08T12:41:40.967Z,21.75
2016-08-08T12:42:41.025Z,21.76
2016-08-08T12:43:41.030Z,21.81
2016-08-08T12:44:40.969Z,21.9
2016-08-08T12:45:41.063Z,21.75
2016-08-08T12:46:41.061Z,21.72
2016-08-08T12:47:41.002Z,21.74
2016-08-08T12:48:40.999Z,21.69
2016-08-08T12:49:41.005Z,21.64
2016-08-08T12:50:41.052Z,21.57
2016-08-08T12:51:40.970Z,21.6
2016-08-08T12:52:41.023Z,21.5
2016-08-08T12:53:41.062Z,21.61
2016-08-08T12:54:41.036Z,21.61
2016-08-08T12:55:41.038Z,21.64
2016-08-08T12:56:41.028Z,21.67
2016-08-08T12:57:41.008Z,21.67
2016-08-08T12:58:40.975Z,21.78
2016-08-08T12:59:41.010Z,21.78
2016-08-08T13:00:40.989Z,21.81
2016-08-08T13:01:41.000Z,22.01
2016-08-08T13:02:41.029Z,21.99
2016-08-08T13:03:41.023Z,21.87
2016-08-08T13:04:41.010Z,22.01